createdAt,value
2023-03-11T00:01:07.626Z,20.57
2023-03-11T00:03:34.713Z,20.57
2023-03-11T00:06:02.447Z,20.55
2023-03-11T00:08:29.994Z,20.56
2023-03-11T00:11:00.438Z,20.54
2023-03-11T00:13:28.629Z,20.54
2023-03-11T00:15:56.703Z,20.54
2023-03-11T00:18:28.318Z,20.55
2023-03-11T00:20:56.601Z,20.53
2023-03-11T00:23:24.974Z,20.54
2023-03-11T00:25:52.368Z,20.53
2023-03-11T00:28:19.561Z,20.54
2023-03-11T00:30:47.060Z,20.55
2023-03-11T00:33:16.151Z,20.53
2023-03-11T00:35:44.513Z,20.53
2023-03-11T00:38:15.482Z,20.54
2023-03-11T00:40:43.397Z,20.53
2023-03-11T00:43:10.860Z,20.53
2023-03-11T00:45:38.166Z,20.53
2023-03-11T00:48:05.992Z,20.52
2023-03-11T00:50:35.336Z,20.53
2023-03-11T00:53:04.193Z,20.52
2023-03-11T00:55:33.816Z,20.52
2023-03-11T00:58:05.876Z,20.50
2023-03-11T01:00:53.183Z,20.49
2023-03-11T01:03:20.452Z,20.51
2023-03-11T01:05:47.553Z,20.51
2023-03-11T01:08:14.682Z,20.49
2023-03-11T01:10:41.983Z,20.50
2023-03-11T01:13:09.102Z,20.50
2023-03-11T01:15:37.479Z,20.50
2023-03-11T01:18:05.964Z,20.48
2023-03-11T01:20:35.812Z,20.48
2023-03-11T01:23:03.019Z,20.49
2023-03-11T01:25:30.208Z,20.47
2023-03-11T01:27:59.204Z,20.46
2023-03-11T01:30:27.423Z,20.46
2023-03-11T01:32:56.139Z,20.45
2023-03-11T01:35:25.494Z,20.44
2023-03-11T01:37:54.145Z,20.44
2023-03-11T01:40:30.844Z,20.44
2023-03-11T01:43:01.086Z,20.44
2023-03-11T01:45:47.806Z,20.43
2023-03-11T01:48:17.300Z,20.43
2023-03-11T01:50:48.895Z,20.42
2023-03-11T01:53:17.707Z,20.42
2023-03-11T01:55:46.637Z,20.40
2023-03-11T01:58:26.562Z,20.42
2023-03-11T02:00:56.461Z,20.40
2023-03-11T02:03:31.070Z,20.40
2023-03-11T02:06:02.743Z,20.40
2023-03-11T02:08:34.176Z,20.40
2023-03-11T02:11:05.407Z,20.38
2023-03-11T02:13:35.409Z,20.38
2023-03-11T02:16:03.823Z,20.36
2023-03-11T02:18:31.771Z,20.37
2023-03-11T02:21:26.806Z,20.35
2023-03-11T02:24:07.740Z,20.38
2023-03-11T02:26:49.631Z,20.35
2023-03-11T02:29:20.075Z,20.36
2023-03-11T02:31:49.949Z,20.34
2023-03-11T02:34:26.093Z,20.35
2023-03-11T02:36:53.361Z,20.34
2023-03-11T02:39:36.552Z,20.34
2023-03-11T02:42:33.314Z,20.33
2023-03-11T02:45:06.192Z,20.33
2023-03-11T02:47:36.134Z,20.31
2023-03-11T02:50:03.869Z,20.31
2023-03-11T02:52:35.379Z,20.31
2023-03-11T02:55:02.815Z,20.30
2023-03-11T02:57:29.974Z,20.29
2023-03-11T02:59:57.737Z,20.29
2023-03-11T03:02:24.932Z,20.28
2023-03-11T03:04:53.089Z,20.27
2023-03-11T03:07:20.952Z,20.28
2023-03-11T03:09:48.128Z,20.25
2023-03-11T03:12:15.453Z,20.25
2023-03-11T03:14:42.594Z,20.25
2023-03-11T03:17:10.987Z,20.22
2023-03-11T03:19:38.209Z,20.24
2023-03-11T03:22:06.568Z,20.21
2023-03-11T03:24:33.926Z,20.22
2023-03-11T03:27:00.980Z,20.22
2023-03-11T03:29:28.628Z,20.21
2023-03-11T03:31:55.769Z,20.21
2023-03-11T03:34:23.232Z,20.21
2023-03-11T03:36:50.511Z,20.20
2023-03-11T03:39:20.041Z,20.21
2023-03-11T03:41:49.227Z,20.20
2023-03-11T03:44:16.383Z,20.19
2023-03-11T03:46:43.659Z,20.19
2023-03-11T03:49:11.084Z,20.18
2023-03-11T03:51:39.138Z,20.18
2023-03-11T03:54:15.356Z,20.17
2023-03-11T03:56:43.219Z,20.16
2023-03-11T03:59:10.527Z,20.17
2023-03-11T04:01:41.961Z,20.15
2023-03-11T04:04:09.936Z,20.14
2023-03-11T04:06:37.248Z,20.11
2023-03-11T04:09:06.964Z,20.13
2023-03-11T04:11:35.710Z,20.13
2023-03-11T04:14:05.849Z,20.14
2023-03-11T04:16:36.858Z,20.13
2023-03-11T04:19:09.404Z,20.13
2023-03-11T04:21:37.016Z,20.13
2023-03-11T04:24:04.983Z,20.12
2023-03-11T04:26:35.888Z,20.09
2023-03-11T04:29:03.725Z,20.10
2023-03-11T04:31:35.549Z,20.10
2023-03-11T04:34:05.971Z,20.10
2023-03-11T04:36:33.401Z,20.09
2023-03-11T04:39:01.158Z,20.09
2023-03-11T04:41:32.697Z,20.09
2023-03-11T04:44:00.576Z,20.08
2023-03-11T04:46:28.294Z,20.09
2023-03-11T04:48:59.460Z,20.07
2023-03-11T04:51:26.638Z,20.06
2023-03-11T04:53:54.062Z,20.06
2023-03-11T04:56:21.376Z,20.07
2023-03-11T04:58:49.487Z,20.05
2023-03-11T05:01:17.385Z,20.05
2023-03-11T05:03:45.136Z,20.04
2023-03-11T05:06:12.522Z,20.01
2023-03-11T05:08:40.649Z,20.04
2023-03-11T05:11:09.449Z,20.03
2023-03-11T05:13:36.616Z,20.02
2023-03-11T05:16:04.594Z,20.02
2023-03-11T05:18:32.661Z,20.00
2023-03-11T05:21:00.337Z,19.97
2023-03-11T05:23:31.158Z,19.99
2023-03-11T05:25:58.572Z,19.98
2023-03-11T05:28:26.051Z,19.99
2023-03-11T05:30:54.165Z,19.97
2023-03-11T05:33:22.317Z,19.96
2023-03-11T05:35:52.141Z,19.95
2023-03-11T05:38:20.366Z,19.93
2023-03-11T05:40:48.326Z,19.95
2023-03-11T05:43:15.516Z,19.95
2023-03-11T05:45:45.899Z,19.93
2023-03-11T05:48:13.356Z,19.92
2023-03-11T05:50:40.600Z,19.92
2023-03-11T05:53:07.870Z,19.90
2023-03-11T05:55:35.325Z,19.92
2023-03-11T05:58:02.516Z,19.89
2023-03-11T06:00:29.755Z,19.89
2023-03-11T06:02:59.737Z,19.89
2023-03-11T06:05:27.137Z,19.89
2023-03-11T06:07:56.088Z,19.89
2023-03-11T06:10:24.042Z,19.87
2023-03-11T06:12:51.720Z,19.89
2023-03-11T06:15:39.140Z,19.88
2023-03-11T06:18:06.339Z,19.89
2023-03-11T06:20:36.502Z,19.89
2023-03-11T06:23:03.618Z,19.88
2023-03-11T06:25:30.702Z,19.91
2023-03-11T06:27:57.793Z,19.91
2023-03-11T06:30:25.675Z,19.91
2023-03-11T06:32:59.944Z,19.92
2023-03-11T06:35:27.325Z,19.97
2023-03-11T06:37:55.799Z,19.98
2023-03-11T06:40:23.619Z,20.01
2023-03-11T06:42:50.813Z,20.07
2023-03-11T06:45:20.801Z,20.09
2023-03-11T06:47:49.302Z,20.16
2023-03-11T06:50:17.032Z,20.20
2023-03-11T06:52:44.261Z,20.24
2023-03-11T06:55:11.535Z,20.29
2023-03-11T06:57:39.488Z,20.34
2023-03-11T07:00:12.598Z,20.40
2023-03-11T07:02:42.807Z,20.45
2023-03-11T07:05:10.882Z,20.51
2023-03-11T07:07:38.237Z,20.55
2023-03-11T07:10:06.606Z,20.60
2023-03-11T07:12:33.814Z,20.65
2023-03-11T07:15:01.147Z,20.70
2023-03-11T07:17:30.124Z,20.75
2023-03-11T07:19:57.918Z,20.78
2023-03-11T07:22:25.071Z,20.84
2023-03-11T07:24:52.274Z,20.88
2023-03-11T07:27:19.818Z,20.90
2023-03-11T07:29:46.936Z,20.93
2023-03-11T07:32:14.366Z,20.99
2023-03-11T07:34:41.625Z,21.01
2023-03-11T07:37:08.964Z,21.01
2023-03-11T07:39:36.062Z,21.04
2023-03-11T07:42:05.669Z,21.04
2023-03-11T07:44:36.684Z,21.04
2023-03-11T07:47:05.764Z,21.05
2023-03-11T07:49:33.851Z,21.04
2023-03-11T07:52:01.072Z,21.03
2023-03-11T07:54:28.456Z,21.03
2023-03-11T07:56:55.637Z,21.07
2023-03-11T07:59:22.793Z,21.06
2023-03-11T08:01:50.739Z,21.07
2023-03-11T08:04:17.987Z,21.08
2023-03-11T08:06:47.634Z,21.10
2023-03-11T08:09:15.316Z,21.11
2023-03-11T08:11:43.077Z,21.15
2023-03-11T08:14:10.432Z,21.13
2023-03-11T08:16:40.434Z,21.17
2023-03-11T08:19:07.726Z,21.20
2023-03-11T08:21:34.836Z,21.24
2023-03-11T08:24:04.091Z,21.26
2023-03-11T08:26:32.131Z,21.27
2023-03-11T08:28:59.853Z,21.31
2023-03-11T08:31:30.296Z,21.31
2023-03-11T08:34:03.421Z,21.34
2023-03-11T08:36:31.606Z,21.38
2023-03-11T12:39:36.333Z,22.55
2023-03-11T12:42:26.953Z,22.59
2023-03-11T12:44:58.174Z,22.62
2023-03-11T12:47:29.434Z,22.66
2023-03-11T12:50:52.678Z,22.64
2023-03-11T12:53:20.427Z,22.64
2023-03-11T12:56:08.960Z,22.62
2023-03-11T12:58:57.259Z,22.60
2023-03-11T13:02:08.303Z,22.60
2023-03-11T13:05:02.509Z,22.59
2023-03-11T13:07:50.512Z,22.62
2023-03-11T13:10:46.197Z,22.63
2023-03-11T13:13:38.347Z,22.65
2023-03-11T13:16:14.482Z,22.69
2023-03-11T13:18:44.212Z,22.74
2023-03-11T13:21:32.564Z,22.79
2023-03-11T13:24:31.727Z,22.83
2023-03-11T13:26:59.685Z,22.88
2023-03-11T13:30:06.120Z,22.94
2023-03-11T13:32:53.831Z,23.00
2023-03-11T13:35:48.564Z,23.03
2023-03-11T13:38:34.693Z,23.06
2023-03-11T13:41:04.663Z,23.08
2023-03-11T13:43:33.025Z,23.07
2023-03-11T13:46:42.034Z,23.09
2023-03-11T13:49:32.172Z,23.09
2023-03-11T13:52:05.097Z,23.07
2023-03-11T13:54:49.013Z,23.04
2023-03-11T13:57:36.722Z,23.04
2023-03-11T14:00:24.268Z,23.01
2023-03-11T14:02:56.127Z,23.00
2023-03-11T14:05:27.490Z,22.98
2023-03-11T14:08:26.674Z,22.98
2023-03-11T14:11:16.442Z,22.98
2023-03-11T14:13:50.234Z,22.96
2023-03-11T14:16:44.856Z,22.96
2023-03-11T14:19:18.194Z,22.97
2023-03-11T14:21:50.142Z,22.96
2023-03-11T14:24:21.439Z,22.97
2023-03-11T14:26:50.521Z,22.98
2023-03-11T14:29:21.625Z,22.96
2023-03-11T14:31:49.472Z,23.00
2023-03-11T14:34:23.260Z,23.01
2023-03-11T14:36:55.670Z,23.01
2023-03-11T14:39:44.189Z,23.00
2023-03-11T14:42:47.720Z,23.00
2023-03-11T14:45:20.063Z,23.01
2023-03-11T14:47:59.654Z,23.00
2023-03-11T14:50:32.962Z,23.00
2023-03-11T14:53:05.865Z,23.03
2023-03-11T14:55:58.466Z,23.02
2023-03-11T14:58:42.659Z,23.05
2023-03-11T15:01:45.147Z,23.05
2023-03-11T15:04:17.000Z,23.05
2023-03-11T15:06:46.736Z,23.02
2023-03-11T15:09:23.174Z,23.04
2023-03-11T15:11:59.075Z,23.03
2023-03-11T15:14:32.929Z,23.02
2023-03-11T15:17:35.365Z,23.01
2023-03-11T15:20:24.966Z,23.03
2023-03-11T15:23:01.720Z,23.08
2023-03-11T15:25:35.048Z,23.12
2023-03-11T15:28:22.607Z,23.17
2023-03-11T15:30:51.008Z,23.20
2023-03-11T15:33:34.540Z,23.26
2023-03-11T15:36:02.689Z,23.30
2023-03-11T15:38:31.835Z,23.37
2023-03-11T15:41:02.186Z,23.45
2023-03-11T15:43:35.307Z,23.54
2023-03-11T15:46:04.161Z,23.64
2023-03-11T15:48:35.791Z,23.72
2023-03-11T15:51:03.707Z,23.80
2023-03-11T15:53:33.911Z,23.81
2023-03-11T15:56:10.955Z,23.86
2023-03-11T15:58:44.059Z,23.91
2023-03-11T16:01:11.995Z,23.95
2023-03-11T16:03:40.754Z,24.07
2023-03-11T16:06:11.294Z,24.01
2023-03-11T16:08:42.606Z,24.03
2023-03-11T16:11:13.399Z,24.03
2023-03-11T16:13:44.369Z,23.99
2023-03-11T16:16:21.015Z,23.94
2023-03-11T16:18:50.547Z,23.96
2023-03-11T16:21:22.684Z,23.89
2023-03-11T16:23:52.460Z,23.84
2023-03-11T16:26:23.211Z,23.76
2023-03-11T16:28:54.693Z,23.67
2023-03-11T16:31:22.242Z,23.60
2023-03-11T16:33:51.433Z,23.50
2023-03-11T16:36:22.427Z,23.42
2023-03-11T16:38:51.784Z,23.34
2023-03-11T16:41:19.664Z,23.29
2023-03-11T16:43:47.366Z,23.21
2023-03-11T16:46:15.089Z,23.16
2023-03-11T16:48:45.301Z,23.10
2023-03-11T16:51:13.307Z,23.07
2023-03-11T16:53:43.588Z,23.04
2023-03-11T16:56:16.159Z,23.01
2023-03-11T16:58:49.624Z,22.98
2023-03-11T17:01:22.682Z,22.95
2023-03-11T17:03:50.999Z,22.93
2023-03-11T17:06:22.049Z,22.91
2023-03-11T17:08:50.664Z,22.91
2023-03-11T17:11:25.005Z,22.88
2023-03-11T17:13:53.383Z,22.87
2023-03-11T17:16:23.735Z,22.84
2023-03-11T17:18:51.637Z,22.84
2023-03-11T17:21:20.692Z,22.81
2023-03-11T17:23:49.413Z,22.80
2023-03-11T17:26:22.072Z,22.77
2023-03-11T17:28:51.697Z,22.74
2023-03-11T17:31:20.023Z,22.73
2023-03-11T17:33:47.342Z,22.71
2023-03-11T17:36:18.140Z,22.68
2023-03-11T17:38:49.203Z,22.63
2023-03-11T17:41:20.395Z,22.63
2023-03-11T17:43:51.609Z,22.62
2023-03-11T17:46:21.500Z,22.59
2023-03-11T17:48:52.872Z,22.56
2023-03-11T17:51:24.400Z,22.52
2023-03-11T17:53:55.060Z,22.50
2023-03-11T17:56:22.867Z,22.47
2023-03-11T17:58:54.163Z,22.42
2023-03-11T18:01:26.375Z,22.42
2023-03-11T18:03:55.085Z,22.40
2023-03-11T18:06:25.645Z,22.38
2023-03-11T18:08:54.504Z,22.35
2023-03-11T18:11:28.205Z,22.33
2023-03-11T18:13:56.780Z,22.30
2023-03-11T18:16:29.117Z,22.29
2023-03-11T18:19:09.308Z,22.26
2023-03-11T18:44:00.513Z,22.11
2023-03-11T18:46:34.484Z,22.14
2023-03-11T18:49:03.864Z,22.12
2023-03-11T18:51:33.316Z,22.10
2023-03-11T18:54:03.092Z,22.09
2023-03-11T18:56:37.461Z,22.11
2023-03-11T18:59:06.379Z,22.12
2023-03-11T19:01:37.749Z,22.11
2023-03-11T19:04:07.027Z,22.08
2023-03-11T19:06:37.380Z,22.07
2023-03-11T19:09:08.323Z,22.08
2023-03-11T19:11:37.901Z,22.10
2023-03-11T19:14:06.403Z,22.13
2023-03-11T19:16:34.901Z,22.16
2023-03-11T19:19:11.832Z,22.19
2023-03-11T19:21:42.395Z,22.23
2023-03-11T20:01:15.845Z,22.01
2023-03-11T20:03:44.922Z,22.00
2023-03-11T20:06:18.047Z,21.98
2023-03-11T20:08:48.205Z,21.96
2023-03-11T20:11:16.029Z,21.95
2023-03-11T20:13:44.964Z,21.94
2023-03-11T20:16:18.375Z,21.92
2023-03-11T20:18:50.897Z,21.91
2023-03-11T20:21:22.281Z,21.89
2023-03-11T20:23:52.661Z,21.88
2023-03-11T20:33:24.432Z,21.83
2023-03-11T20:35:51.706Z,21.81
2023-03-11T21:03:26.178Z,21.72
2023-03-11T21:05:53.546Z,21.70
2023-03-11T21:08:20.688Z,21.69
2023-03-11T21:10:48.406Z,21.68
2023-03-11T21:13:15.693Z,21.67
2023-03-11T21:15:45.473Z,21.66
2023-03-11T21:18:14.725Z,21.65
2023-03-11T21:20:42.245Z,21.65
2023-03-11T21:23:13.620Z,21.64
2023-03-11T21:25:43.653Z,21.63
2023-03-11T21:28:11.061Z,21.61
2023-03-11T21:30:42.431Z,21.62
2023-03-11T21:33:10.390Z,21.60
2023-03-11T21:35:38.979Z,21.60
2023-03-11T21:38:06.211Z,21.60
2023-03-11T21:40:33.986Z,21.59
2023-03-11T21:43:01.858Z,21.57
2023-03-11T21:45:29.576Z,21.58
2023-03-11T21:47:56.932Z,21.56
2023-03-11T21:50:27.843Z,21.55
2023-03-11T21:52:55.293Z,21.56
2023-03-11T21:55:23.149Z,21.55
2023-03-11T21:57:50.837Z,21.54
2023-03-11T22:00:19.845Z,21.53
2023-03-11T22:02:51.599Z,21.53
2023-03-11T22:05:22.751Z,21.53
2023-03-11T22:07:51.507Z,21.53
2023-03-11T22:10:20.745Z,21.52
2023-03-11T22:16:31.772Z,21.52
2023-03-11T22:18:59.523Z,21.51
2023-03-11T22:21:28.865Z,21.51
2023-03-11T22:23:56.139Z,21.49
2023-03-11T22:26:25.132Z,21.50
2023-03-11T22:28:52.757Z,21.50
2023-03-11T22:31:21.245Z,21.47
2023-03-11T22:33:51.608Z,21.46
2023-03-11T22:36:19.661Z,21.46
2023-03-11T22:38:47.788Z,21.46
2023-03-11T22:41:18.405Z,21.45
2023-03-11T22:44:00.113Z,21.44
2023-03-11T22:46:28.060Z,21.42
2023-03-11T22:48:56.821Z,21.41
2023-03-11T22:51:24.511Z,21.40
2023-03-11T22:53:54.854Z,21.39
2023-03-11T22:56:23.820Z,21.39
2023-03-11T22:58:52.597Z,21.38
2023-03-11T23:01:20.224Z,21.38
2023-03-11T23:03:50.602Z,21.38
2023-03-11T23:06:20.023Z,21.36
2023-03-11T23:08:49.299Z,21.36
2023-03-11T23:11:21.612Z,21.35
2023-03-11T23:13:52.497Z,21.35
2023-03-11T23:16:24.651Z,21.34
2023-03-11T23:18:54.410Z,21.34
2023-03-11T23:21:28.204Z,21.34
2023-03-11T23:23:55.813Z,21.33
2023-03-11T23:26:26.525Z,21.33
2023-03-11T23:28:56.699Z,21.31
2023-03-11T23:31:28.721Z,21.31
2023-03-11T23:33:58.141Z,21.31
2023-03-11T23:36:34.221Z,21.30
2023-03-11T23:39:06.562Z,21.30
2023-03-11T23:41:34.252Z,21.30
2023-03-11T23:44:01.555Z,21.30
2023-03-11T23:46:30.067Z,21.28
2023-03-11T23:49:01.331Z,21.28
2023-03-11T23:51:30.743Z,21.28
2023-03-11T23:53:58.366Z,21.28
2023-03-11T23:56:27.148Z,21.27
2023-03-11T23:58:54.858Z,21.28
